createdAt,value
2023-03-11T00:02:14.291Z,56.94
2023-03-11T00:05:23.317Z,56.79
2023-03-11T00:08:32.980Z,56.35
2023-03-11T00:11:38.548Z,57.04
2023-03-11T00:14:45.048Z,56.46
2023-03-11T00:17:51.657Z,56.87
2023-03-11T00:21:01.397Z,56.39
2023-03-11T00:24:10.769Z,56.61
2023-03-11T00:27:17.177Z,56.55
2023-03-11T00:30:25.297Z,57.30
2023-03-11T00:33:32.640Z,57.39
2023-03-11T00:36:38.149Z,57.62
2023-03-11T00:39:48.051Z,57.65
2023-03-11T00:42:53.745Z,57.54
2023-03-11T00:46:00.161Z,57.42
2023-03-11T00:49:05.826Z,57.43
2023-03-11T00:52:12.787Z,57.70
2023-03-11T00:55:26.324Z,57.82
2023-03-11T00:58:33.454Z,57.07
2023-03-11T01:01:39.251Z,56.84
2023-03-11T01:04:45.811Z,57.53
2023-03-11T01:07:51.937Z,56.41
2023-03-11T01:11:03.176Z,55.98
2023-03-11T01:14:09.262Z,56.34
2023-03-11T01:17:17.054Z,55.79
2023-03-11T01:20:23.517Z,55.57
2023-03-11T01:23:30.250Z,55.24
2023-03-11T01:26:38.691Z,54.69
2023-03-11T01:29:45.087Z,54.99
2023-03-11T01:32:51.299Z,54.55
2023-03-11T01:35:58.060Z,54.76
2023-03-11T01:39:06.585Z,54.56
2023-03-11T01:42:16.045Z,55.05
2023-03-11T01:45:46.269Z,54.52
2023-03-11T01:48:56.812Z,53.73
2023-03-11T01:52:09.900Z,54.03
2023-03-11T01:55:24.494Z,53.46
2023-03-11T01:58:41.086Z,53.32
2023-03-11T02:01:58.960Z,53.50
2023-03-11T02:05:07.393Z,53.26
2023-03-11T02:08:14.320Z,53.22
2023-03-11T02:11:29.095Z,53.43
2023-03-11T02:14:45.525Z,54.24
2023-03-11T02:17:51.376Z,54.82
2023-03-11T02:21:13.205Z,55.32
2023-03-11T02:24:33.563Z,55.84
2023-03-11T02:27:50.619Z,55.54
2023-03-11T02:31:00.497Z,56.17
2023-03-11T02:34:17.890Z,55.20
2023-03-11T02:37:24.403Z,55.73
2023-03-11T02:40:57.390Z,55.89
2023-03-11T02:44:14.029Z,55.81
2023-03-11T02:47:20.908Z,56.17
2023-03-11T02:50:29.999Z,55.78
2023-03-11T02:53:47.223Z,57.02
2023-03-11T02:56:54.895Z,57.16
2023-03-11T03:00:10.964Z,57.70
2023-03-11T03:03:18.733Z,56.92
2023-03-11T03:06:25.567Z,56.31
2023-03-11T03:09:32.526Z,55.92
2023-03-11T03:12:38.303Z,55.59
2023-03-11T03:15:47.732Z,55.40
2023-03-11T03:18:53.537Z,55.11
2023-03-11T03:22:00.038Z,55.09
2023-03-11T03:25:06.064Z,54.76
2023-03-11T03:28:13.433Z,55.65
2023-03-11T03:31:25.927Z,56.66
2023-03-11T03:34:32.602Z,55.98
2023-03-11T03:37:41.104Z,57.21
2023-03-11T03:40:50.743Z,57.45
2023-03-11T03:43:59.585Z,56.97
2023-03-11T03:47:09.575Z,57.75
2023-03-11T03:50:16.874Z,57.91
2023-03-11T03:53:26.372Z,58.33
2023-03-11T03:56:32.064Z,58.84
2023-03-11T03:59:39.703Z,59.46
2023-03-11T04:02:48.244Z,59.27
2023-03-11T04:06:12.534Z,60.28
2023-03-11T04:09:19.488Z,61.53
2023-03-11T04:12:26.019Z,61.54
2023-03-11T04:15:32.163Z,61.25
2023-03-11T04:18:41.717Z,62.52
2023-03-11T04:21:47.443Z,63.75
2023-03-11T04:24:54.553Z,64.58
2023-03-11T04:28:00.278Z,64.95
2023-03-11T04:31:07.675Z,65.44
2023-03-11T04:34:16.834Z,65.88
2023-03-11T04:37:23.821Z,66.78
2023-03-11T04:40:29.573Z,66.41
2023-03-11T04:43:37.509Z,67.13
2023-03-11T04:46:43.364Z,66.33
2023-03-11T04:49:56.270Z,68.17
2023-03-11T04:53:02.750Z,67.52
2023-03-11T04:56:10.357Z,68.95
2023-03-11T04:59:17.393Z,68.78
2023-03-11T05:02:24.780Z,67.67
2023-03-11T05:05:38.391Z,67.82
2023-03-11T05:08:45.934Z,67.20
2023-03-11T05:11:52.333Z,68.84
2023-03-11T05:15:00.178Z,70.35
2023-03-11T05:18:06.161Z,69.74
2023-03-11T05:21:16.837Z,69.68
2023-03-11T05:24:23.826Z,71.46
2023-03-11T05:27:30.479Z,71.16
2023-03-11T05:30:36.794Z,71.04
2023-03-11T05:33:44.117Z,71.06
2023-03-11T05:36:54.847Z,71.65
2023-03-11T05:40:02.465Z,72.78
2023-03-11T05:43:08.504Z,72.36
2023-03-11T05:46:18.479Z,73.40
2023-03-11T05:49:24.445Z,74.18
2023-03-11T05:52:35.624Z,73.86
2023-03-11T05:55:41.464Z,73.41
2023-03-11T05:58:49.388Z,73.94
2023-03-11T06:01:56.071Z,73.72
2023-03-11T06:05:06.163Z,74.49
2023-03-11T06:08:17.930Z,74.43
2023-03-11T06:11:27.155Z,74.82
2023-03-11T06:14:33.670Z,74.97
2023-03-11T06:17:41.802Z,75.15
2023-03-11T06:20:48.380Z,75.33
2023-03-11T06:23:59.256Z,76.15
2023-03-11T06:27:09.618Z,75.75
2023-03-11T06:30:17.734Z,76.05
2023-03-11T06:33:32.754Z,76.36
2023-03-11T06:36:40.402Z,76.59
2023-03-11T06:39:49.537Z,76.09
2023-03-11T06:43:00.530Z,76.23
2023-03-11T06:46:16.807Z,76.64
2023-03-11T06:49:24.450Z,76.39
2023-03-11T06:52:30.616Z,76.78
2023-03-11T06:55:40.621Z,76.38
2023-03-11T06:58:47.229Z,77.06
2023-03-11T07:01:56.214Z,77.54
2023-03-11T07:05:02.628Z,76.56
2023-03-11T07:08:10.949Z,76.89
2023-03-11T07:11:23.407Z,76.32
2023-03-11T07:14:33.213Z,76.64
2023-03-11T07:17:39.782Z,76.31
2023-03-11T07:20:47.685Z,76.70
2023-03-11T07:23:58.342Z,76.31
2023-03-11T07:27:08.634Z,75.98
2023-03-11T07:30:15.896Z,76.67
2023-03-11T07:33:24.833Z,76.72
2023-03-11T07:36:32.274Z,76.06
2023-03-11T07:39:39.291Z,76.38
2023-03-11T07:42:48.171Z,77.12
2023-03-11T07:45:56.913Z,76.14
2023-03-11T07:49:04.701Z,76.81
2023-03-11T07:52:11.533Z,77.07
2023-03-11T07:55:21.097Z,76.90
2023-03-11T07:58:32.584Z,76.50
2023-03-11T08:01:41.607Z,76.86
2023-03-11T08:04:48.702Z,76.50
2023-03-11T08:07:54.922Z,77.23
2023-03-11T08:11:07.378Z,77.00
2023-03-11T08:14:16.411Z,77.18
2023-03-11T08:17:23.564Z,76.78
2023-03-11T08:20:29.971Z,77.83
2023-03-11T08:23:37.846Z,77.36
2023-03-11T08:26:44.982Z,77.71
2023-03-11T08:29:55.653Z,76.98
2023-03-11T08:33:02.252Z,77.53
2023-03-11T08:36:10.834Z,77.00
2023-03-11T08:39:18.063Z,77.85
2023-03-11T08:42:25.603Z,78.25
2023-03-11T08:45:35.461Z,78.01
2023-03-11T08:48:43.466Z,78.36
2023-03-11T08:51:49.937Z,77.98
2023-03-11T08:54:57.434Z,77.77
2023-03-11T08:58:04.113Z,77.05
2023-03-11T09:01:16.425Z,77.55
2023-03-11T09:04:22.883Z,77.76
2023-03-11T09:07:30.514Z,78.50
2023-03-11T09:10:37.456Z,78.68
2023-03-11T09:13:45.076Z,78.53
2023-03-11T09:16:54.731Z,78.35
2023-03-11T09:20:02.510Z,77.82
2023-03-11T09:23:09.503Z,77.04
2023-03-11T09:26:18.762Z,77.87
2023-03-11T09:29:26.029Z,77.55
2023-03-11T09:32:37.454Z,77.70
2023-03-11T09:35:45.255Z,77.09
2023-03-11T09:38:53.615Z,77.12
2023-03-11T09:42:05.841Z,77.63
2023-03-11T09:45:23.374Z,77.23
2023-03-11T09:49:14.584Z,77.45
2023-03-11T09:53:38.584Z,77.30
2023-03-11T09:58:23.721Z,76.90
2023-03-11T10:19:24.829Z,76.90
2023-03-11T10:22:51.577Z,78.46
2023-03-11T10:26:14.330Z,78.43
2023-03-11T10:29:30.838Z,78.22
2023-03-11T10:32:50.497Z,78.84
2023-03-11T10:36:10.540Z,78.90
2023-03-11T10:39:19.133Z,79.73
2023-03-11T10:42:33.279Z,78.43
2023-03-11T10:45:46.749Z,78.45
2023-03-11T10:48:56.173Z,79.57
2023-03-11T10:52:08.978Z,79.32
2023-03-11T10:55:22.905Z,78.97
2023-03-11T10:58:34.819Z,78.16
2023-03-11T11:02:02.299Z,79.40
2023-03-11T11:05:34.398Z,79.61
2023-03-11T11:08:47.978Z,79.14
2023-03-11T11:12:18.741Z,78.69
2023-03-11T11:15:32.181Z,78.04
2023-03-11T11:18:49.523Z,77.76
2023-03-11T11:21:59.048Z,76.88
2023-03-11T11:25:34.438Z,77.19
2023-03-11T11:28:44.759Z,76.09
2023-03-11T11:31:52.767Z,77.02
2023-03-11T11:47:28.291Z,75.21
2023-03-11T11:50:44.081Z,75.14
2023-03-11T11:54:03.156Z,74.36
2023-03-11T11:57:20.343Z,73.54
2023-03-11T12:00:41.906Z,73.51
2023-03-11T12:04:32.305Z,72.18
2023-03-11T12:08:08.373Z,72.05
2023-03-11T12:11:34.901Z,73.42
2023-03-11T12:14:59.709Z,73.76
2023-03-11T12:47:40.943Z,73.36
2023-03-11T12:50:50.016Z,73.07
2023-03-11T12:54:00.997Z,73.42
2023-03-11T12:57:38.225Z,73.31
2023-03-11T13:01:13.124Z,72.75
2023-03-11T13:04:54.973Z,71.38
2023-03-11T13:08:13.699Z,71.76
2023-03-11T13:11:46.913Z,71.53
2023-03-11T13:15:18.957Z,71.70
2023-03-11T13:18:30.950Z,72.35
2023-03-11T13:21:43.574Z,72.40
2023-03-11T13:24:54.961Z,72.39
2023-03-11T13:28:34.104Z,73.15
2023-03-11T13:32:03.743Z,72.02
2023-03-11T13:35:35.087Z,72.20
2023-03-11T13:39:42.998Z,72.25
2023-03-11T13:43:20.482Z,71.92
2023-03-11T13:46:51.216Z,71.90
2023-03-11T13:50:30.873Z,71.86
2023-03-11T13:54:06.779Z,71.68
2023-03-11T13:57:32.748Z,71.47
2023-03-11T14:00:54.449Z,71.09
2023-03-11T14:04:02.831Z,71.69
2023-03-11T14:07:23.043Z,71.10
2023-03-11T14:10:33.775Z,72.29
2023-03-11T14:13:46.286Z,71.22
2023-03-11T14:16:58.487Z,70.34
2023-03-11T14:20:18.628Z,70.37
2023-03-11T14:23:48.289Z,70.61
2023-03-11T14:27:19.624Z,70.55
2023-03-11T14:30:45.781Z,72.02
2023-03-11T14:34:44.309Z,72.47
2023-03-11T14:37:56.289Z,72.28
2023-03-11T14:41:17.404Z,72.20
2023-03-11T14:44:32.257Z,71.56
2023-03-11T14:47:50.336Z,71.22
2023-03-11T14:51:07.694Z,70.22
2023-03-11T14:54:27.501Z,69.99
2023-03-11T14:57:48.413Z,69.17
2023-03-11T15:01:05.856Z,69.25
2023-03-11T15:04:17.950Z,68.56
2023-03-11T15:07:27.604Z,67.56
2023-03-11T15:10:35.512Z,68.26
2023-03-11T15:13:47.671Z,66.88
2023-03-11T15:16:57.773Z,66.98
2023-03-11T15:20:05.788Z,67.55
2023-03-11T15:23:26.227Z,67.96
2023-03-11T15:26:38.575Z,68.25
2023-03-11T15:29:55.926Z,67.77
2023-03-11T15:33:03.486Z,68.12
2023-03-11T15:36:36.294Z,68.95
2023-03-11T15:39:55.755Z,68.72
2023-03-11T15:43:28.556Z,69.11
2023-03-11T15:46:35.272Z,68.22
2023-03-11T15:49:42.790Z,68.45
2023-03-11T15:52:49.613Z,67.71
2023-03-11T15:56:08.095Z,67.88
2023-03-11T15:59:20.567Z,68.32
2023-03-11T16:02:32.005Z,67.88
2023-03-11T16:05:39.358Z,67.92
2023-03-11T16:08:47.766Z,65.92
2023-03-11T16:11:56.952Z,66.98
2023-03-11T16:15:04.796Z,66.55
2023-03-11T16:18:13.899Z,65.13
2023-03-11T16:21:27.694Z,65.76
2023-03-11T16:24:34.699Z,65.40
2023-03-11T16:27:45.592Z,65.57
2023-03-11T16:30:54.877Z,65.61
2023-03-11T16:34:02.313Z,64.75
2023-03-11T16:37:10.177Z,65.64
2023-03-11T16:40:22.390Z,65.43
2023-03-11T16:43:35.450Z,66.21
2023-03-11T16:46:43.741Z,65.46
2023-03-11T16:49:53.881Z,65.43
2023-03-11T16:53:03.131Z,65.58
2023-03-11T16:56:11.022Z,65.10
2023-03-11T16:59:21.594Z,64.98
2023-03-11T17:02:28.588Z,64.22
2023-03-11T17:05:37.078Z,63.44
2023-03-11T17:12:14.090Z,64.31
2023-03-11T17:15:24.917Z,63.75
2023-03-11T17:18:33.307Z,63.51
2023-03-11T17:21:40.164Z,63.32
2023-03-11T17:24:48.470Z,64.22
2023-03-11T17:27:58.956Z,64.00
2023-03-11T17:31:14.792Z,63.46
2023-03-11T17:34:25.344Z,64.55
2023-03-11T17:37:34.733Z,63.81
2023-03-11T17:44:08.469Z,64.22
2023-03-11T17:47:20.429Z,64.08
2023-03-11T17:50:28.592Z,64.43
2023-03-11T17:53:37.447Z,63.73
2023-03-11T17:56:45.196Z,64.43
2023-03-11T17:59:54.622Z,63.74
2023-03-11T18:03:05.011Z,63.88
2023-03-11T18:06:13.297Z,63.48
2023-03-11T18:09:20.518Z,63.75
2023-03-11T18:12:26.974Z,63.87
2023-03-11T18:15:34.240Z,64.23
2023-03-11T18:18:44.672Z,63.77
2023-03-11T18:21:51.550Z,63.79
2023-03-11T18:24:57.922Z,64.05
2023-03-11T18:28:05.437Z,63.33
2023-03-11T18:31:14.468Z,63.64
2023-03-11T18:34:24.062Z,63.99
2023-03-11T18:37:30.440Z,64.00
2023-03-11T18:40:37.233Z,64.50
2023-03-11T18:43:43.775Z,64.70
2023-03-11T18:46:50.446Z,64.07
2023-03-11T18:49:59.255Z,63.72
2023-03-11T18:53:06.013Z,63.07
2023-03-11T18:56:16.817Z,63.41
2023-03-11T18:59:23.383Z,62.60
2023-03-11T19:02:29.965Z,63.01
2023-03-11T19:05:39.355Z,63.38
2023-03-11T19:08:44.970Z,62.64
2023-03-11T19:11:51.477Z,62.26
2023-03-11T19:14:57.161Z,62.76
2023-03-11T19:18:06.883Z,62.90
2023-03-11T19:21:19.412Z,62.75
2023-03-11T19:24:25.949Z,62.00
2023-03-11T19:27:32.121Z,62.32
2023-03-11T19:30:38.694Z,63.47
2023-03-11T19:33:47.240Z,62.85
2023-03-11T19:36:56.595Z,63.48
2023-03-11T19:40:13.093Z,63.06
2023-03-11T19:43:20.634Z,62.55
2023-03-11T19:46:27.829Z,61.94
2023-03-11T19:49:34.664Z,62.12
2023-03-11T19:52:43.318Z,62.22
2023-03-11T19:55:53.761Z,61.74
2023-03-11T19:59:00.562Z,62.27
2023-03-11T20:02:07.507Z,62.76
2023-03-11T20:05:14.161Z,62.33
2023-03-11T20:08:25.614Z,62.20
2023-03-11T20:11:31.788Z,62.07
2023-03-11T20:14:38.474Z,61.92
2023-03-11T20:17:44.316Z,61.92
2023-03-11T20:20:51.344Z,62.57
2023-03-11T20:24:01.492Z,62.21
2023-03-11T20:27:08.309Z,62.11
2023-03-11T20:30:16.294Z,62.01
2023-03-11T20:33:22.991Z,62.09
2023-03-11T20:36:31.901Z,62.50
2023-03-11T20:39:42.295Z,61.29
2023-03-11T20:42:48.358Z,61.84
2023-03-11T20:45:55.349Z,60.99
2023-03-11T20:49:01.725Z,61.09
2023-03-11T20:52:08.861Z,60.91
2023-03-11T20:55:17.781Z,61.20
2023-03-11T20:58:24.674Z,61.20
2023-03-11T21:01:34.093Z,61.28
2023-03-11T21:04:44.336Z,61.96
2023-03-11T21:07:51.646Z,61.42
2023-03-11T21:11:05.414Z,60.60
2023-03-11T21:14:12.451Z,60.80
2023-03-11T21:17:20.233Z,60.64
2023-03-11T21:20:26.129Z,61.20
2023-03-11T21:23:32.925Z,60.80
2023-03-11T21:26:41.883Z,62.14
2023-03-11T21:29:48.711Z,62.38
2023-03-11T21:32:55.018Z,62.58
2023-03-11T21:36:04.492Z,62.50
2023-03-11T21:39:10.609Z,62.87
2023-03-11T21:42:20.707Z,64.20
2023-03-11T21:45:26.934Z,64.03
2023-03-11T21:48:33.704Z,64.59
2023-03-11T21:51:39.923Z,64.85
2023-03-11T21:54:46.577Z,64.58
2023-03-11T21:57:55.557Z,65.76
2023-03-11T22:01:03.468Z,65.91
2023-03-11T22:04:09.514Z,65.76
2023-03-11T22:07:16.149Z,65.77
2023-03-11T22:10:22.515Z,64.68
2023-03-11T22:13:32.014Z,65.13
2023-03-11T22:16:37.867Z,64.28
2023-03-11T22:19:44.643Z,64.62
2023-03-11T22:22:50.535Z,63.89
2023-03-11T22:25:57.573Z,63.98
2023-03-11T22:29:08.622Z,64.04
2023-03-11T22:32:15.404Z,63.49
2023-03-11T22:35:22.286Z,63.61
2023-03-11T22:38:30.233Z,63.37
2023-03-11T22:41:36.574Z,63.91
2023-03-11T22:44:45.807Z,63.12
2023-03-11T22:47:51.481Z,62.83
2023-03-11T22:50:58.498Z,62.72
2023-03-11T22:54:04.041Z,62.90
2023-03-11T22:57:10.568Z,62.43
2023-03-11T23:00:24.250Z,63.04
2023-03-11T23:03:30.742Z,62.31
2023-03-11T23:06:36.363Z,63.49
2023-03-11T23:09:43.111Z,62.61
2023-03-11T23:12:49.557Z,62.59
2023-03-11T23:15:58.777Z,62.53
2023-03-11T23:19:04.344Z,62.01
2023-03-11T23:22:10.846Z,63.08
2023-03-11T23:25:19.978Z,62.81
2023-03-11T23:28:26.504Z,62.34
2023-03-11T23:31:36.664Z,62.70
2023-03-11T23:34:43.213Z,62.18
2023-03-11T23:37:51.909Z,62.02
2023-03-11T23:40:59.140Z,62.23
2023-03-11T23:44:04.742Z,61.87
2023-03-11T23:47:14.094Z,62.10
2023-03-11T23:50:20.328Z,62.42
2023-03-11T23:53:29.639Z,62.12
2023-03-11T23:56:35.558Z,62.71
2023-03-11T23:59:42.245Z,62.85
